Du har inga inställningar för hoppväder.nu

Hoppväder.nu

Senast uppdaterat 06:06

UTC-tid

2020-01-29 kl. 05:06


Sol och måne

Solen går upp 8:29 och går ner 15:08 (beräknade cirkatider)
Nästa fullmåne blir om 11 dagar (2020-02-09)

METAR

ESNS (Skellefteå)
(16 minuter sedan)
ESNS 290450Z AUTO 36009KT 9999 OVC006/// M07/M08 Q1002=



ESNU (Umeå)
(16 minuter sedan)
ESNU 290450Z 02008KT 3300 SG OVC006 M05/M05 Q0999 RWY 14 ICE 11-25 PCT FCT 0.43=



ESPA (Luleå)
(16 minuter sedan)
ESPA 290450Z 03005KT 360V070 9999 -SN OVC010 M09/M10 Q1004=









TAF

ESNS (Skellefteå)
(36 minuter sedan)
ESNS 290430Z 2905/2912 36008KT 9999 OVC008 TEMPO 2905/2912 2000 SG BKN004=



ESNU (Umeå)
(156 minuter sedan)
ESNU 290230Z 2903/2912 02006KT 5000 -SN SCT007 BKN015 TEMPO 2903/2912 2000 SN BR BKN003=



ESPA (Luleå)
(36 minuter sedan)
ESPA 290430Z 2905/2912 04009KT 9999 -SN SCT010 OVC020 PROB40 2905/2912 2000 SG VV009=





Kodnycklar till TAF och METAR






LHP

(Skellefteå är område A1b i Norra delen)







Spotting

Hur fungerar spotthjälpen och Vindkartan?

Markvind är ca 0 m/s.
Vind på 600 m ca 0 m/s.
Vind på 1500 m ca 0 m/s.
Vind på 3000 m ca 0 m/s.
Mesen flyger ca 41 m/s över marken på finalen.
Du driver ca 0 m bakåt i frifall. (0 m)
Lämplig spot är 7 sekunder eller 288 m innan gropen.
(-7s eller -288 m)
För små grupper eller ensamhoppare bör man vänta 4-5 sekunder mellan grupperna.
För större grupper bör man vänta 7-9 sekunder mellan grupperna.


Vindkartan

Senast uppdaterad 06:06




All data kommer från LFV.se